Temple, Maine
Current Conditions -  °F | °C
As of 2:55 AM on Sunday 26 Oct 2014 (Local Time) from KWVL Reporting Station
Broken Clouds Broken Clouds  
Wind Chill: 46°   Ceiling: 6500
Heat Index: 46°   Visibility: 9mi
Dew Point: 43°   Wind: 0mph
Humidity: 87%   Direction: NA
Pressure: 29.36"   Gusts: NA
Location:  44.68°N, 70.23°W
Report Text: KWVL 260655Z 00000KT 9SM FEW046 BKN065 08/06 A2936 RMK AO1
Loading
Personal Weather Stations






























Interactive Weather Map
Tropical Storm Tracking
New forecast layout! Learn more

10-Day Weather Forecast

Advertisements
Track Severe Weather on mobile